createdAt,value
2023-04-15T00:01:42.367Z,5.05
2023-04-15T00:04:08.771Z,4.85
2023-04-15T00:06:37.104Z,5.00
2023-04-15T00:09:03.732Z,5.22
2023-04-15T00:11:30.318Z,5.30
2023-04-15T00:13:56.790Z,5.40
2023-04-15T00:16:24.757Z,4.80
2023-04-15T00:18:51.146Z,5.13
2023-04-15T00:21:17.562Z,5.38
2023-04-15T00:23:43.922Z,4.88
2023-04-15T00:26:10.291Z,5.10
2023-04-15T00:28:36.656Z,4.93
2023-04-15T00:31:03.080Z,5.07
2023-04-15T00:33:30.827Z,5.07
2023-04-15T00:35:57.353Z,4.82
2023-04-15T00:38:23.711Z,5.07
2023-04-15T00:40:50.130Z,5.28
2023-04-15T00:43:16.873Z,5.10
2023-04-15T00:45:43.299Z,5.50
2023-04-15T00:48:10.746Z,5.82
2023-04-15T00:50:38.636Z,5.60
2023-04-15T00:53:05.031Z,5.22
2023-04-15T00:55:31.482Z,6.22
2023-04-15T00:57:58.000Z,6.10
2023-04-15T01:00:24.792Z,6.00
2023-04-15T01:02:51.276Z,7.03
2023-04-15T01:05:17.945Z,7.20
2023-04-15T01:07:46.944Z,7.47
2023-04-15T01:10:13.317Z,6.72
2023-04-15T01:12:40.326Z,6.80
2023-04-15T01:15:08.486Z,6.88
2023-04-15T01:17:35.174Z,7.35
2023-04-15T01:20:02.099Z,7.38
2023-04-15T01:22:28.633Z,7.60
2023-04-15T01:25:03.952Z,8.40
2023-04-15T01:27:32.488Z,7.15
2023-04-15T01:29:58.851Z,7.43
2023-04-15T01:32:25.407Z,8.13
2023-04-15T01:34:51.756Z,7.80
2023-04-15T01:37:18.339Z,8.63
2023-04-15T01:39:44.772Z,8.30
2023-04-15T01:42:11.231Z,8.43
2023-04-15T01:44:38.916Z,9.55
2023-04-15T01:47:05.306Z,9.13
2023-04-15T01:49:31.952Z,9.57
2023-04-15T01:51:58.292Z,9.75
2023-04-15T01:54:24.716Z,9.95
2023-04-15T01:56:51.122Z,9.60
2023-04-15T01:59:17.477Z,9.35
2023-04-15T02:01:45.213Z,9.25
2023-04-15T02:04:11.733Z,9.10
2023-04-15T02:06:38.112Z,8.20
2023-04-15T02:09:04.483Z,9.10
2023-04-15T02:11:30.820Z,8.93
2023-04-15T02:13:57.215Z,9.10
2023-04-15T02:16:23.623Z,9.60
2023-04-15T02:18:51.314Z,9.52
2023-04-15T02:21:17.747Z,9.18
2023-04-15T02:23:44.350Z,9.52
2023-04-15T02:26:10.700Z,9.65
2023-04-15T02:28:37.032Z,9.80
2023-04-15T02:31:05.716Z,10.68
2023-04-15T02:33:32.099Z,10.18
2023-04-15T02:35:59.789Z,10.95
2023-04-15T02:38:26.178Z,10.85
2023-04-15T02:40:52.553Z,10.73
2023-04-15T02:43:18.927Z,10.98
2023-04-15T02:45:46.096Z,10.32
2023-04-15T02:48:12.517Z,12.35
2023-04-15T02:50:39.762Z,12.00
2023-04-15T02:53:07.786Z,12.13
2023-04-15T02:55:34.152Z,10.73
2023-04-15T02:58:00.501Z,12.07
2023-04-15T03:00:27.311Z,12.13
2023-04-15T03:02:58.916Z,11.95
2023-04-15T03:05:25.761Z,12.00
2023-04-15T03:07:52.995Z,12.93
2023-04-15T03:10:21.004Z,12.85
2023-04-15T03:12:47.578Z,13.43
2023-04-15T03:15:14.309Z,14.02
2023-04-15T03:17:40.804Z,14.18
2023-04-15T03:20:07.853Z,13.68
2023-04-15T03:22:34.435Z,13.90
2023-04-15T03:25:00.775Z,13.13
2023-04-15T03:27:28.473Z,13.25
2023-04-15T03:29:54.879Z,13.00
2023-04-15T03:32:21.281Z,13.93
2023-04-15T03:34:47.668Z,14.45
2023-04-15T03:37:14.104Z,15.63
2023-04-15T03:39:40.439Z,15.10
2023-04-15T03:42:06.789Z,14.48
2023-04-15T03:44:34.498Z,15.10
2023-04-15T03:47:00.855Z,14.15
2023-04-15T03:49:27.214Z,16.13
2023-04-15T03:51:53.587Z,13.82
2023-04-15T03:54:19.925Z,16.20
2023-04-15T03:56:46.265Z,15.98
2023-04-15T03:59:12.718Z,16.73
2023-04-15T04:01:40.391Z,16.35
2023-04-15T04:04:07.039Z,16.13
2023-04-15T04:06:33.610Z,16.05
2023-04-15T04:09:00.136Z,17.42
2023-04-15T04:11:26.784Z,18.33
2023-04-15T04:13:53.192Z,17.38
2023-04-15T04:16:19.662Z,17.23
2023-04-15T04:18:47.527Z,16.88
2023-04-15T04:21:14.084Z,16.40
2023-04-15T04:23:40.574Z,17.13
2023-04-15T04:26:06.992Z,17.02
2023-04-15T04:28:33.433Z,16.90
2023-04-15T04:31:00.308Z,17.27
2023-04-15T04:33:26.698Z,18.13
2023-04-15T04:35:54.434Z,17.55
2023-04-15T04:38:20.845Z,16.45
2023-04-15T04:40:47.249Z,17.25
2023-04-15T04:43:13.645Z,16.73
2023-04-15T04:45:40.043Z,17.83
2023-04-15T04:48:06.504Z,17.00
2023-04-15T04:50:33.049Z,16.80
2023-04-15T04:53:00.769Z,16.88
2023-04-15T04:55:27.439Z,18.70
2023-04-15T04:57:53.885Z,18.48
2023-04-15T05:00:20.545Z,17.75
2023-04-15T05:02:47.051Z,18.30
2023-04-15T05:05:13.547Z,18.55
2023-04-15T05:07:39.910Z,17.90
2023-04-15T05:10:09.060Z,16.73
2023-04-15T05:12:35.813Z,19.10
2023-04-15T05:15:02.215Z,16.40
2023-04-15T05:17:28.687Z,19.65
2023-04-15T05:19:55.292Z,17.98
2023-04-15T05:22:21.703Z,18.88
2023-04-15T05:24:48.132Z,17.42
2023-04-15T05:27:15.868Z,18.08
2023-04-15T05:29:42.237Z,17.67
2023-04-15T05:32:08.637Z,16.88
2023-04-15T05:34:35.262Z,17.00
2023-04-15T05:37:01.681Z,17.00
2023-04-15T05:39:28.470Z,16.70
2023-04-15T05:41:55.100Z,19.15
2023-04-15T05:44:22.875Z,17.65
2023-04-15T05:46:49.368Z,16.88
2023-04-15T05:49:15.786Z,15.35
2023-04-15T05:51:42.259Z,14.70
2023-04-15T05:54:09.014Z,14.73
2023-04-15T05:56:35.607Z,14.95
2023-04-15T05:59:02.354Z,14.27
2023-04-15T06:01:30.299Z,13.98
2023-04-15T06:03:57.548Z,14.30
2023-04-15T06:06:24.143Z,15.02
2023-04-15T06:08:51.133Z,13.80
2023-04-15T06:11:17.819Z,13.20
2023-04-15T06:13:44.336Z,12.75
2023-04-15T06:16:10.784Z,12.55
2023-04-15T06:18:38.573Z,12.45
2023-04-15T06:21:05.116Z,12.32
2023-04-15T06:23:34.078Z,11.85
2023-04-15T06:26:00.475Z,11.20
2023-04-15T06:28:26.913Z,11.10
2023-04-15T06:30:53.650Z,12.70
2023-04-15T06:33:20.035Z,10.90
2023-04-15T06:35:47.790Z,11.48
2023-04-15T06:38:14.214Z,9.98
2023-04-15T06:40:40.659Z,9.38
2023-04-15T06:43:07.047Z,10.07
2023-04-15T06:45:33.468Z,9.45
2023-04-15T06:47:59.952Z,9.20
2023-04-15T06:50:26.541Z,8.93
2023-04-15T06:52:55.843Z,9.02
2023-04-15T06:55:22.787Z,8.35
2023-04-15T06:57:49.205Z,7.78
2023-04-15T07:00:15.829Z,8.63
2023-04-15T07:02:42.369Z,10.38
2023-04-15T07:05:09.165Z,8.05
2023-04-15T07:07:35.525Z,7.72
2023-04-15T07:10:03.545Z,7.60
2023-04-15T07:12:29.945Z,7.68
2023-04-15T07:14:56.367Z,8.38
2023-04-15T07:17:22.996Z,8.07
2023-04-15T07:19:49.420Z,7.93
2023-04-15T07:22:15.923Z,7.03
2023-04-15T07:24:42.349Z,7.47
2023-04-15T07:27:10.054Z,5.80
2023-04-15T07:29:36.424Z,6.53
2023-04-15T07:32:03.454Z,6.32
2023-04-15T07:34:31.440Z,7.93
2023-04-15T07:36:58.986Z,6.43
2023-04-15T07:39:25.357Z,5.95
2023-04-15T07:41:51.727Z,6.68
2023-04-15T07:44:19.473Z,5.72
2023-04-15T07:46:45.881Z,5.85
2023-04-15T07:49:12.248Z,5.35
2023-04-15T07:51:38.682Z,4.95
2023-04-15T07:54:05.127Z,4.93
2023-04-15T07:56:31.573Z,4.53
2023-04-15T07:59:00.782Z,4.40
2023-04-15T08:01:28.707Z,5.32
2023-04-15T08:03:55.247Z,4.53
2023-04-15T08:06:21.708Z,5.60
2023-04-15T08:08:48.242Z,4.50
2023-04-15T08:11:14.692Z,4.53
2023-04-15T08:13:41.087Z,4.80
2023-04-15T08:16:17.842Z,4.65
2023-04-15T08:18:45.701Z,5.00
2023-04-15T08:21:12.085Z,3.88
2023-04-15T08:23:38.925Z,4.05
2023-04-15T08:26:05.748Z,3.92
2023-04-15T08:28:32.297Z,4.25
2023-04-15T08:30:58.874Z,4.30
2023-04-15T08:33:25.546Z,3.47
2023-04-15T08:35:53.246Z,3.60
2023-04-15T08:38:19.643Z,3.47
2023-04-15T08:40:46.437Z,3.53
2023-04-15T08:43:18.593Z,6.20
2023-04-15T08:45:46.587Z,4.85
2023-04-15T08:48:15.149Z,4.20
2023-04-15T08:50:41.792Z,4.28
2023-04-15T08:53:10.517Z,3.63
2023-04-15T08:55:42.680Z,3.38
2023-04-15T08:58:09.981Z,3.70
2023-04-15T09:00:36.582Z,3.67
2023-04-15T09:03:04.460Z,3.20
2023-04-15T09:05:32.524Z,3.45
2023-04-15T09:07:59.073Z,3.72
2023-04-15T09:10:26.997Z,4.63
2023-04-15T09:12:53.407Z,4.22
2023-04-15T09:15:20.430Z,4.30
2023-04-15T09:17:47.203Z,4.53
2023-04-15T09:20:15.526Z,4.05
2023-04-15T09:22:43.305Z,4.57
2023-04-15T09:25:27.933Z,4.57
2023-04-15T09:27:55.698Z,4.60
2023-04-15T09:30:22.520Z,4.60
2023-04-15T09:32:50.102Z,5.18
2023-04-15T09:35:16.535Z,5.30
2023-04-15T09:37:43.028Z,4.95
2023-04-15T09:40:10.585Z,5.70
2023-04-15T09:42:54.235Z,5.28
2023-04-15T09:45:22.100Z,5.90
2023-04-15T09:47:48.615Z,6.57
2023-04-15T09:50:15.421Z,6.30
2023-04-15T09:52:43.035Z,7.10
2023-04-15T09:55:10.093Z,6.25
2023-04-15T09:57:39.425Z,6.95
2023-04-15T10:00:08.652Z,7.35
2023-04-15T10:02:36.875Z,7.57
2023-04-15T10:05:03.940Z,7.53
2023-04-15T10:07:30.681Z,8.38
2023-04-15T10:09:59.672Z,8.25
2023-04-15T10:12:27.505Z,8.50
2023-04-15T10:14:58.907Z,9.27
2023-04-15T10:17:27.921Z,8.68
2023-04-15T10:19:55.291Z,9.27
2023-04-15T10:22:22.699Z,9.70
2023-04-15T10:24:50.292Z,10.25
2023-04-15T10:27:17.922Z,10.60
2023-04-15T10:29:44.664Z,11.13
2023-04-15T10:32:13.375Z,11.45
2023-04-15T10:34:40.795Z,13.07
2023-04-15T10:37:10.004Z,13.77
2023-04-15T10:39:42.218Z,12.88
2023-04-15T10:42:11.058Z,13.73
2023-04-15T10:44:38.008Z,14.18
2023-04-15T10:47:10.368Z,15.88
2023-04-15T10:49:43.536Z,14.60
2023-04-15T10:52:10.000Z,16.02
2023-04-15T10:54:36.472Z,16.58
2023-04-15T10:57:14.408Z,16.80
2023-04-15T11:00:09.531Z,17.38
2023-04-15T11:02:41.732Z,18.20
2023-04-15T11:05:10.372Z,21.08
2023-04-15T11:07:39.145Z,17.35
2023-04-15T11:10:54.406Z,19.08
2023-04-15T11:13:25.888Z,18.02
2023-04-15T11:15:56.322Z,19.05
2023-04-15T11:18:25.797Z,21.60
2023-04-15T11:20:55.289Z,20.17
2023-04-15T11:23:29.618Z,23.30
2023-04-15T11:25:56.434Z,24.10
2023-04-15T11:28:25.827Z,22.67
2023-04-15T11:30:52.333Z,23.60
2023-04-15T11:33:18.795Z,24.95
2023-04-15T11:35:45.310Z,25.23
2023-04-15T11:38:14.682Z,23.00
2023-04-15T11:40:43.354Z,25.55
2023-04-15T11:43:12.946Z,23.75
2023-04-15T11:45:48.972Z,22.27
2023-04-15T11:48:15.460Z,25.13
2023-04-15T11:50:41.922Z,23.70
2023-04-15T11:53:09.808Z,27.40
2023-04-15T11:55:45.434Z,26.80
2023-04-15T11:58:16.138Z,26.38
2023-04-15T12:00:47.909Z,27.90
2023-04-15T12:03:18.148Z,30.85
2023-04-15T12:06:07.911Z,26.70
2023-04-15T12:09:07.799Z,31.40
2023-04-15T12:11:37.931Z,27.70
2023-04-15T12:14:07.162Z,29.27
2023-04-15T12:16:37.261Z,29.13
2023-04-15T12:19:17.595Z,30.98
2023-04-15T12:21:46.593Z,32.78
2023-04-15T12:24:12.994Z,33.75
2023-04-15T12:26:46.178Z,34.38
2023-04-15T12:29:13.610Z,32.88
2023-04-15T12:31:51.397Z,33.45
2023-04-15T12:34:20.147Z,33.50
2023-04-15T12:36:46.557Z,32.45
2023-04-15T12:39:13.454Z,33.58
2023-04-15T12:41:40.181Z,35.95
2023-04-15T12:44:08.114Z,34.75
2023-04-15T12:46:34.551Z,34.47
2023-04-15T12:49:01.291Z,35.00
2023-04-15T12:51:27.695Z,34.28
2023-04-15T12:53:54.104Z,36.13
2023-04-15T12:56:20.489Z,34.97
2023-04-15T12:58:46.855Z,35.25
2023-04-15T13:01:14.646Z,33.20
2023-04-15T13:03:41.320Z,34.78
2023-04-15T13:06:07.893Z,36.25
2023-04-15T13:08:34.848Z,35.00
2023-04-15T13:11:03.692Z,29.27
2023-04-15T13:13:30.133Z,33.33
2023-04-15T13:15:56.611Z,31.88
2023-04-15T13:18:24.485Z,30.00
2023-04-15T13:20:51.430Z,29.90
2023-04-15T13:23:18.063Z,29.15
2023-04-15T13:25:45.112Z,30.65
2023-04-15T13:28:11.937Z,27.55
2023-04-15T13:30:38.774Z,27.98
2023-04-15T13:33:05.690Z,27.23
2023-04-15T13:35:33.666Z,27.98
2023-04-15T13:38:01.176Z,26.55
2023-04-15T13:40:27.900Z,25.23
2023-04-15T13:42:54.373Z,27.08
2023-04-15T13:45:20.935Z,26.38
2023-04-15T13:47:47.524Z,24.83
2023-04-15T13:50:14.070Z,25.38
2023-04-15T13:52:41.791Z,25.80
2023-04-15T13:55:19.930Z,24.63
2023-04-15T13:57:47.335Z,23.30
2023-04-15T14:00:14.798Z,23.50
2023-04-15T14:02:49.442Z,22.83
2023-04-15T14:05:16.074Z,23.13
2023-04-15T14:07:42.528Z,22.95
2023-04-15T14:10:09.005Z,20.40
2023-04-15T14:12:35.741Z,20.58
2023-04-15T14:15:02.193Z,21.42
2023-04-15T14:17:28.702Z,21.00
2023-04-15T14:19:56.560Z,20.73
2023-04-15T14:22:22.985Z,21.23
2023-04-15T14:24:49.366Z,21.35
2023-04-15T14:27:15.774Z,21.58
2023-04-15T14:29:42.209Z,18.88
2023-04-15T14:32:11.375Z,20.52
2023-04-15T14:34:39.011Z,19.00
2023-04-15T14:37:06.757Z,19.00
2023-04-15T14:39:33.215Z,19.83
2023-04-15T14:41:59.654Z,17.65
2023-04-15T14:44:26.142Z,19.67
2023-04-15T14:46:52.643Z,18.98
2023-04-15T14:49:19.582Z,19.15
2023-04-15T14:51:45.986Z,18.55
2023-04-15T14:54:13.709Z,18.30
2023-04-15T14:56:40.194Z,18.58
2023-04-15T14:59:06.720Z,20.17
2023-04-15T15:01:33.569Z,20.02
2023-04-15T15:04:00.296Z,19.05
2023-04-15T15:06:26.735Z,17.10
2023-04-15T15:08:53.215Z,18.00
2023-04-15T15:11:20.956Z,18.42
2023-04-15T15:13:47.368Z,16.80
2023-04-15T15:16:14.708Z,16.88
2023-04-15T15:18:41.440Z,15.82
2023-04-15T15:21:07.910Z,16.63
2023-04-15T15:23:34.403Z,14.65
2023-04-15T15:26:00.915Z,15.82
2023-04-15T15:28:28.716Z,16.65
2023-04-15T15:30:55.245Z,16.50
2023-04-15T15:33:21.732Z,16.85
2023-04-15T15:35:48.174Z,17.95
2023-04-15T15:38:14.717Z,18.35
2023-04-15T15:40:41.122Z,20.25
2023-04-15T15:43:07.793Z,21.55
2023-04-15T15:45:35.735Z,29.45
2023-04-15T15:48:02.418Z,34.17
2023-04-15T15:50:29.068Z,39.15
2023-04-15T15:52:55.663Z,24.83
2023-04-15T15:55:22.074Z,22.10
2023-04-15T15:57:48.468Z,22.92
2023-04-15T16:00:15.505Z,23.50
2023-04-15T16:05:13.993Z,24.63
2023-04-15T16:07:40.487Z,24.10
2023-04-15T16:10:07.986Z,24.23
2023-04-15T16:12:35.060Z,21.40
2023-04-15T16:15:01.688Z,22.20
2023-04-15T16:17:28.145Z,23.95
2023-04-15T16:20:00.538Z,22.83
2023-04-15T16:22:27.931Z,23.10
2023-04-15T16:24:54.412Z,25.08
2023-04-15T16:27:20.891Z,22.90
2023-04-15T16:29:47.313Z,23.65
2023-04-15T16:32:13.783Z,23.33
2023-04-15T16:34:40.315Z,23.27
2023-04-15T16:37:08.124Z,23.40
2023-04-15T16:39:34.911Z,26.10
2023-04-15T16:42:01.908Z,25.48
2023-04-15T16:44:28.401Z,24.98
2023-04-15T16:46:54.813Z,23.90
2023-04-15T16:49:21.177Z,23.30
2023-04-15T16:51:47.634Z,23.92
2023-04-15T16:54:15.392Z,25.30
2023-04-15T16:56:41.808Z,24.85
2023-04-15T16:59:08.225Z,25.30
2023-04-15T17:01:34.800Z,23.35
2023-04-15T17:04:01.305Z,21.13
2023-04-15T17:06:27.840Z,18.83
2023-04-15T17:08:54.250Z,16.67
2023-04-15T17:11:21.951Z,20.10
2023-04-15T17:13:48.527Z,22.45
2023-04-15T17:16:14.912Z,22.77
2023-04-15T17:18:41.353Z,22.02
2023-04-15T17:21:07.787Z,22.83
2023-04-15T17:23:34.169Z,24.70
2023-04-15T17:26:00.587Z,23.58
2023-04-15T17:28:28.509Z,22.35
2023-04-15T17:30:55.153Z,22.88
2023-04-15T17:33:55.309Z,22.10
2023-04-15T17:36:08.186Z,21.00
2023-04-15T17:38:34.586Z,17.65
2023-04-15T17:41:01.080Z,16.15
2023-04-15T17:43:28.784Z,16.13
2023-04-15T17:45:56.203Z,15.13
2023-04-15T17:48:25.077Z,14.15
2023-04-15T17:50:52.065Z,14.23
2023-04-15T17:53:18.610Z,16.20
2023-04-15T17:55:44.992Z,17.17
2023-04-15T17:58:11.512Z,14.32
2023-04-15T18:00:39.212Z,14.40
2023-04-15T18:03:05.727Z,15.48
2023-04-15T18:05:32.532Z,15.57
2023-04-15T18:07:59.053Z,15.50
2023-04-15T18:10:25.457Z,14.55
2023-04-15T18:12:51.834Z,15.50
2023-04-15T18:15:19.098Z,14.02
2023-04-15T18:17:47.810Z,15.68
2023-04-15T18:20:14.327Z,15.52
2023-04-15T18:22:42.120Z,15.80
2023-04-15T18:25:09.004Z,15.63
2023-04-15T18:27:36.544Z,16.73
2023-04-15T18:30:03.144Z,16.52
2023-04-15T18:32:31.817Z,15.40
2023-04-15T18:34:59.928Z,14.38
2023-04-15T18:37:26.424Z,16.23
2023-04-15T18:39:52.845Z,16.10
2023-04-15T18:42:19.278Z,14.70
2023-04-15T18:44:45.696Z,14.80
2023-04-15T18:47:12.178Z,15.95
2023-04-15T18:49:38.609Z,14.52
2023-04-15T18:52:06.463Z,15.23
2023-04-15T18:54:32.879Z,15.93
2023-04-15T18:56:59.304Z,14.93
2023-04-15T18:59:30.145Z,15.23
2023-04-15T19:01:57.773Z,15.98
2023-04-15T19:04:24.185Z,15.30
2023-04-15T19:06:50.828Z,15.38
2023-04-15T19:09:18.549Z,15.68
2023-04-15T19:11:45.075Z,15.70
2023-04-15T19:14:11.526Z,15.15
2023-04-15T19:16:38.049Z,16.83
2023-04-15T19:19:04.666Z,15.73
2023-04-15T19:21:31.963Z,15.52
2023-04-15T19:23:59.391Z,15.63
2023-04-15T19:26:27.263Z,18.13
2023-04-15T19:28:53.762Z,16.48
2023-04-15T19:31:20.304Z,16.63
2023-04-15T19:33:46.855Z,16.20
2023-04-15T19:36:13.241Z,15.90
2023-04-15T19:38:39.633Z,16.77
2023-04-15T19:41:06.184Z,16.92
2023-04-15T19:43:33.861Z,15.90
2023-04-15T19:46:00.305Z,16.23
2023-04-15T19:48:26.956Z,16.00
2023-04-15T19:50:53.419Z,14.38
2023-04-15T19:53:19.828Z,15.73
2023-04-15T19:55:46.246Z,15.63
2023-04-15T19:58:12.636Z,15.95
2023-04-15T20:00:40.346Z,16.20
2023-04-15T20:03:06.896Z,16.48
2023-04-15T20:05:33.310Z,16.15
2023-04-15T20:08:00.764Z,16.63
2023-04-15T20:10:27.185Z,15.02
2023-04-15T20:12:53.682Z,14.82
2023-04-15T20:15:20.759Z,16.08
2023-04-15T20:17:48.516Z,15.68
2023-04-15T20:20:15.250Z,15.55
2023-04-15T20:22:41.770Z,14.50
2023-04-15T20:25:08.758Z,14.05
2023-04-15T20:27:35.188Z,15.20
2023-04-15T20:30:01.667Z,16.63
2023-04-15T20:32:28.319Z,26.40
2023-04-15T20:34:56.230Z,45.83
2023-04-15T20:37:22.594Z,27.35
2023-04-15T20:39:49.160Z,16.20
2023-04-15T20:42:15.533Z,13.98
2023-04-15T20:44:41.909Z,13.60
2023-04-15T20:47:08.495Z,14.52
2023-04-15T20:49:35.845Z,13.07
2023-04-15T20:52:05.034Z,13.32
2023-04-15T20:54:31.462Z,13.65
2023-04-15T20:56:57.976Z,16.30
2023-04-15T20:59:24.506Z,14.45
2023-04-15T21:01:51.133Z,12.85
2023-04-15T21:04:17.575Z,13.90
2023-04-15T21:06:43.965Z,14.07
2023-04-15T21:09:11.664Z,13.82
2023-04-15T21:11:57.430Z,13.98
2023-04-15T21:14:24.488Z,13.98
2023-04-15T21:16:50.940Z,13.57
2023-04-15T21:19:17.348Z,14.13
2023-04-15T21:21:43.812Z,14.45
2023-04-15T21:24:12.635Z,15.02
2023-04-15T21:26:39.168Z,14.05
2023-04-15T21:29:07.919Z,16.30
2023-04-15T21:31:36.044Z,15.43
2023-04-15T21:34:02.451Z,16.85
2023-04-15T21:36:28.893Z,18.27
2023-04-15T21:38:55.302Z,17.27
2023-04-15T21:41:23.114Z,18.50
2023-04-15T21:43:49.575Z,18.42
2023-04-15T21:46:22.868Z,18.00
2023-04-15T21:48:51.218Z,18.38
2023-04-15T21:51:17.648Z,19.67
2023-04-15T21:53:44.054Z,18.65
2023-04-15T21:56:10.504Z,18.30
2023-04-15T21:58:38.206Z,18.73
2023-04-15T22:01:04.840Z,18.33
2023-04-15T22:03:32.490Z,17.67
2023-04-15T22:05:59.121Z,18.27
2023-04-15T22:08:25.530Z,19.02
2023-04-15T22:10:51.909Z,20.63
2023-04-15T22:13:18.293Z,18.88
2023-04-15T22:15:46.164Z,20.85
2023-04-15T22:18:13.121Z,19.67
2023-04-15T22:20:39.953Z,20.58
2023-04-15T22:23:06.375Z,20.08
2023-04-15T22:25:33.154Z,19.92
2023-04-15T22:27:59.594Z,19.92
2023-04-15T22:30:26.440Z,21.65
2023-04-15T22:32:54.230Z,20.95
2023-04-15T22:35:20.654Z,22.85
2023-04-15T22:37:46.997Z,21.73
2023-04-15T22:40:13.950Z,20.88
2023-04-15T22:42:40.315Z,21.65
2023-04-15T22:45:08.222Z,21.92
2023-04-15T22:47:34.658Z,21.20
2023-04-15T22:50:02.394Z,22.05
2023-04-15T22:52:31.014Z,22.55
2023-04-15T22:54:58.056Z,23.25
2023-04-15T22:57:24.803Z,23.08
2023-04-15T22:59:51.271Z,22.98
2023-04-15T23:02:17.950Z,22.95
2023-04-15T23:04:44.562Z,22.13
2023-04-15T23:07:12.364Z,23.23
2023-04-15T23:09:38.893Z,21.13
2023-04-15T23:12:05.548Z,23.25
2023-04-15T23:14:31.937Z,23.10
2023-04-15T23:16:58.459Z,22.98
2023-04-15T23:19:25.007Z,23.98
2023-04-15T23:21:51.477Z,23.70
2023-04-15T23:24:19.168Z,22.73
2023-04-15T23:26:45.508Z,22.65
2023-04-15T23:29:12.012Z,22.45
2023-04-15T23:31:38.494Z,23.75
2023-04-15T23:34:04.935Z,24.17
2023-04-15T23:36:31.296Z,23.08
2023-04-15T23:38:57.666Z,24.05
2023-04-15T23:41:25.363Z,25.02
2023-04-15T23:43:51.831Z,24.45
2023-04-15T23:46:18.242Z,23.17
2023-04-15T23:48:44.612Z,22.80
2023-04-15T23:51:10.970Z,22.58
2023-04-15T23:53:37.355Z,22.23
2023-04-15T23:56:04.345Z,22.83
2023-04-15T23:58:34.003Z,22.33
